Time;durP1;ratioP1;P1;durP2;ratioP2;P2;SDS_P1;SDS_P2;PMS_P1;PMS_P2;Temp;Humidity;BMP_temperature;BMP_pressure;BME280_temperature;BME280_humidity;BME280_pressure;Samples;Min_cycle;Max_cycle;Signal;HPM_P1;HPM_P2
2021/05/20 00:00:19;;;;;;;9.00;5.38;;;;;;;8.03;88.16;101287.16;5033352;28;20476;-51
2021/05/20 00:02:45;;;;;;;9.27;5.88;;;;;;;8.09;87.97;101287.22;5035292;28;20053;-50
2021/05/20 00:05:12;;;;;;;8.65;6.15;;;;;;;7.95;89.61;101287.00;5036028;28;20032;-55
2021/05/20 00:07:39;;;;;;;7.65;5.45;;;;;;;7.91;89.97;101287.81;5036175;28;20265;-49
2021/05/20 00:10:06;;;;;;;9.23;5.95;;;;;;;7.83;90.91;101289.41;5034498;28;20448;-48
2021/05/20 00:12:33;;;;;;;9.73;6.15;;;;;;;7.77;91.46;101298.00;5036498;28;20037;-50
2021/05/20 00:14:58;;;;;;;10.18;6.28;;;;;;;7.82;91.07;101298.06;5032643;28;20256;-53
2021/05/20 00:17:25;;;;;;;10.00;6.43;;;;;;;7.79;90.43;101298.88;5014225;28;20041;-49
2021/05/20 00:19:51;;;;;;;8.10;5.55;;;;;;;7.78;90.28;101297.16;5035321;28;20606;-50
2021/05/20 00:22:16;;;;;;;9.77;6.20;;;;;;;7.82;90.64;101290.25;5013256;28;20043;-54
2021/05/20 00:24:42;;;;;;;8.75;5.90;;;;;;;7.87;90.49;101288.59;5033146;28;20103;-52
2021/05/20 00:27:08;;;;;;;10.13;6.93;;;;;;;7.83;91.11;101303.28;5035049;28;20124;-50
2021/05/20 00:29:33;;;;;;;13.70;7.22;;;;;;;7.82;91.42;101298.97;5016985;28;20045;-50
2021/05/20 00:32:01;;;;;;;9.80;6.30;;;;;;;7.82;89.61;101306.78;5017122;28;20035;-48
2021/05/20 00:34:27;;;;;;;9.68;7.05;;;;;;;7.90;90.46;101298.19;5035767;28;20457;-50
2021/05/20 00:36:53;;;;;;;10.20;6.75;;;;;;;7.93;90.67;101298.25;5035056;28;20072;-54
2021/05/20 00:39:18;;;;;;;10.13;7.28;;;;;;;7.94;90.54;101302.59;5033332;28;20029;-53
2021/05/20 00:41:44;;;;;;;10.70;7.28;;;;;;;7.98;90.66;101300.06;5031736;28;20059;-50
2021/05/20 00:44:10;;;;;;;11.57;7.03;;;;;;;8.02;90.34;101301.88;5033346;28;20067;-49
2021/05/20 00:46:35;;;;;;;11.70;6.88;;;;;;;8.02;91.05;101301.00;5036676;28;20033;-53
2021/05/20 00:49:09;;;;;;;11.93;6.75;;;;;;;8.04;91.47;101293.22;4999294;28;20098;-50
2021/05/20 00:51:36;;;;;;;12.52;7.20;;;;;;;8.01;91.28;101299.25;5031808;28;20784;-48
2021/05/20 00:54:02;;;;;;;10.38;7.05;;;;;;;8.01;91.77;101294.03;5036147;28;20041;-49
2021/05/20 00:56:29;;;;;;;10.45;7.10;;;;;;;8.05;90.87;101300.19;5034151;28;20119;-49
2021/05/20 00:58:55;;;;;;;11.15;6.78;;;;;;;8.18;90.53;101297.78;5035275;28;20478;-50
2021/05/20 01:01:21;;;;;;;11.27;6.97;;;;;;;8.13;90.05;101301.19;5033490;28;20317;-51
2021/05/20 01:03:46;;;;;;;9.50;6.80;;;;;;;8.15;91.11;101308.13;5032960;28;20502;-48
2021/05/20 01:06:12;;;;;;;10.38;6.85;;;;;;;8.12;89.97;101309.84;5031948;28;20049;-48
2021/05/20 01:08:38;;;;;;;13.30;7.57;;;;;;;8.11;90.57;101306.38;5034518;28;20429;-48
2021/05/20 01:11:04;;;;;;;9.90;7.15;;;;;;;8.18;90.44;101304.72;5033648;28;20554;-48
2021/05/20 01:13:29;;;;;;;12.02;8.07;;;;;;;8.17;90.64;101309.06;5035566;28;20037;-48
2021/05/20 01:15:55;;;;;;;10.48;7.43;;;;;;;8.17;90.45;101309.06;5034399;28;20037;-50
2021/05/20 01:18:21;;;;;;;12.93;8.63;;;;;;;8.21;90.09;101312.59;5035522;28;20036;-48
2021/05/20 01:20:46;;;;;;;14.93;9.73;;;;;;;8.16;91.05;101317.72;5033380;28;20045;-50
2021/05/20 01:23:17;;;;;;;17.30;11.73;;;;;;;8.19;91.29;101315.16;5033118;28;20041;-48
2021/05/20 01:25:45;;;;;;;15.00;10.80;;;;;;;8.57;90.97;101315.72;5034480;28;20039;-51
2021/05/20 01:28:17;;;;;;;16.02;10.32;;;;;;;8.47;90.52;101312.13;5033008;28;20213;-51
2021/05/20 01:30:44;;;;;;;17.40;11.07;;;;;;;8.50;91.12;101315.66;5032702;28;20220;-48
2021/05/20 01:33:11;;;;;;;16.83;10.95;;;;;;;8.59;88.32;101316.63;5016745;28;20106;-50
2021/05/20 01:35:37;;;;;;;15.80;10.10;;;;;;;8.56;89.62;101316.59;5031976;28;20580;-51
2021/05/20 01:41:05;;;;;;;15.88;11.23;;;;;;;8.46;90.19;101319.06;5031990;28;20044;-48
2021/05/20 01:43:31;;;;;;;;;;;;;;;8.45;89.05;101321.66;5034926;28;20516;-47
2021/05/20 01:45:58;;;;;;;17.73;11.95;;;;;;;8.44;90.20;101320.72;5033114;28;19920;-48
2021/05/20 01:48:25;;;;;;;19.10;11.80;;;;;;;8.41;90.82;101322.44;5031736;28;20040;-49
2021/05/20 01:50:51;;;;;;;18.10;12.98;;;;;;;8.39;91.03;101319.81;5029695;28;20619;-48
2021/05/20 01:53:17;;;;;;;19.65;12.90;;;;;;;8.33;90.74;101312.78;5033439;28;20151;-48
2021/05/20 01:55:42;;;;;;;19.20;12.80;;;;;;;8.37;91.19;101324.09;5015266;28;20349;-48
2021/05/20 01:58:08;;;;;;;17.75;13.43;;;;;;;8.44;91.05;101318.13;5014008;28;20045;-50
2021/05/20 02:00:34;;;;;;;19.13;13.18;;;;;;;8.40;90.34;101313.72;5035718;28;20037;-48
2021/05/20 02:03:00;;;;;;;22.63;13.32;;;;;;;8.45;89.13;101316.44;5032408;28;20037;-50
2021/05/20 02:05:25;;;;;;;18.45;13.55;;;;;;;8.41;90.74;101327.66;5030719;28;20108;-49
2021/05/20 02:07:52;;;;;;;20.60;14.73;;;;;;;8.38;90.30;101320.66;5018486;28;20075;-52
2021/05/20 02:10:18;;;;;;;19.70;13.93;;;;;;;8.34;91.17;101326.66;5033057;28;20025;-49
2021/05/20 02:12:43;;;;;;;17.80;13.63;;;;;;;8.33;90.78;101328.41;5028101;28;20029;-49
2021/05/20 02:15:09;;;;;;;20.15;13.65;;;;;;;8.36;91.51;101335.38;5033048;28;20428;-49
2021/05/20 02:17:36;;;;;;;21.15;15.02;;;;;;;8.40;91.08;101328.50;5031765;28;20037;-48
2021/05/20 02:20:06;;;;;;;20.35;14.35;;;;;;;8.40;91.55;101325.88;5032705;28;20028;-51
2021/05/20 02:22:32;;;;;;;21.13;14.73;;;;;;;8.33;91.77;101330.13;5034203;28;20135;-51
2021/05/20 02:24:58;;;;;;;20.50;14.05;;;;;;;8.56;90.22;101335.72;5015765;28;20155;-48
2021/05/20 02:27:23;;;;;;;20.63;14.73;;;;;;;8.45;89.96;101332.09;5032263;28;20128;-50
2021/05/20 02:29:49;;;;;;;19.95;13.50;;;;;;;8.41;90.86;101343.28;5031810;28;20055;-50
2021/05/20 02:32:14;;;;;;;22.33;15.48;;;;;;;8.35;91.43;101344.06;5030931;28;20071;-48
2021/05/20 02:34:40;;;;;;;22.58;15.55;;;;;;;8.31;91.46;101345.72;5035525;28;20385;-48
2021/05/20 02:37:06;;;;;;;22.85;16.27;;;;;;;8.29;91.92;101341.34;5036887;28;20301;-48
2021/05/20 02:39:31;;;;;;;24.15;16.90;;;;;;;8.36;91.81;101337.97;5035250;28;20098;-48
2021/05/20 02:41:57;;;;;;;21.00;15.93;;;;;;;8.33;91.01;101336.22;5035361;28;20124;-49
2021/05/20 02:44:24;;;;;;;22.60;14.82;;;;;;;8.90;88.93;101335.28;5034834;28;20040;-48
2021/05/20 02:46:52;;;;;;;19.75;14.52;;;;;;;8.92;88.49;101333.59;5018431;28;20036;-50
2021/05/20 02:49:17;;;;;;;22.50;15.93;;;;;;;8.57;90.15;101341.78;5035842;28;20075;-50
2021/05/20 02:51:43;;;;;;;21.98;15.05;;;;;;;8.51;90.16;101343.47;5035387;28;20045;-48
2021/05/20 02:54:09;;;;;;;21.38;14.85;;;;;;;8.67;89.84;101344.56;5016972;28;20051;-49
2021/05/20 02:56:34;;;;;;;22.77;15.38;;;;;;;8.50;90.34;101346.94;5036394;28;20116;-48
2021/05/20 02:59:00;;;;;;;21.67;15.45;;;;;;;8.50;90.66;101352.13;5034857;28;20102;-50
2021/05/20 03:01:26;;;;;;;19.25;14.35;;;;;;;8.71;89.21;101345.50;5037760;28;20087;-50
2021/05/20 03:03:51;;;;;;;21.00;14.50;;;;;;;8.47;90.09;101352.09;5033315;28;20551;-48
2021/05/20 03:06:17;;;;;;;22.30;14.75;;;;;;;8.42;90.60;101358.94;5036947;28;20029;-49
2021/05/20 03:08:43;;;;;;;19.63;13.95;;;;;;;8.62;90.23;101364.47;5034003;28;20044;-49
2021/05/20 03:11:08;;;;;;;22.63;15.65;;;;;;;8.52;89.82;101363.44;5031812;28;20057;-49
2021/05/20 03:13:34;;;;;;;22.42;14.90;;;;;;;8.65;89.94;101359.31;5035857;28;20029;-48
2021/05/20 03:16:00;;;;;;;21.30;15.63;;;;;;;8.49;90.10;101366.00;5015951;28;20091;-50
2021/05/20 03:18:25;;;;;;;23.58;15.65;;;;;;;8.58;89.54;101364.41;5034642;28;20045;-49
2021/05/20 03:20:51;;;;;;;22.33;15.02;;;;;;;8.52;89.88;101365.19;5016421;28;20040;-49
2021/05/20 03:23:17;;;;;;;21.38;14.43;;;;;;;8.42;88.80;101358.94;5035774;28;20029;-48
2021/05/20 03:25:42;;;;;;;23.00;16.27;;;;;;;8.49;89.80;101366.00;5035837;28;20110;-50
2021/05/20 03:28:09;;;;;;;22.13;16.30;;;;;;;8.39;90.97;101360.59;5036458;28;20516;-50
2021/05/20 03:30:34;;;;;;;22.95;15.90;;;;;;;8.45;90.16;101363.34;5033586;28;20041;-53
2021/05/20 03:33:00;;;;;;;22.48;15.77;;;;;;;8.40;89.57;101373.66;5031987;28;20614;-50
2021/05/20 03:35:25;;;;;;;19.67;14.45;;;;;;;8.52;89.37;101368.66;5032808;28;20124;-50
2021/05/20 03:37:51;;;;;;;22.60;16.27;;;;;;;8.48;89.86;101369.47;5036078;28;20082;-48
2021/05/20 03:40:17;;;;;;;22.13;15.88;;;;;;;8.48;89.80;101366.84;5034065;28;20049;-50
2021/05/20 03:42:42;;;;;;;24.40;17.27;;;;;;;8.43;89.84;101365.91;5035010;28;20562;-49
2021/05/20 03:45:09;;;;;;;26.45;17.45;;;;;;;8.61;89.58;101367.03;5031389;28;20042;-52
2021/05/20 03:47:35;;;;;;;26.40;17.23;;;;;;;8.58;89.53;101374.81;5033272;28;20048;-49
2021/05/20 03:50:01;;;;;;;25.90;17.83;;;;;;;8.38;90.09;101377.97;5035108;28;20376;-49
2021/05/20 03:52:26;;;;;;;26.15;17.77;;;;;;;8.56;90.56;101386.97;5036078;28;20036;-48
2021/05/20 03:54:52;;;;;;;27.10;18.75;;;;;;;8.48;90.47;101379.03;5030947;28;20041;-49
2021/05/20 03:57:18;;;;;;;31.63;19.20;;;;;;;8.33;90.05;101380.50;5031943;28;20362;-50
2021/05/20 03:59:43;;;;;;;29.23;18.67;;;;;;;8.25;90.60;101381.22;5033707;28;20044;-49
2021/05/20 04:02:09;;;;;;;31.98;20.63;;;;;;;8.72;88.99;101378.50;5028745;28;20034;-48
2021/05/20 04:04:35;;;;;;;33.72;21.33;;;;;;;8.39;89.84;101382.34;5034376;28;20553;-48
2021/05/20 04:07:01;;;;;;;30.77;20.13;;;;;;;8.67;89.19;101380.19;5035145;28;20725;-50
2021/05/20 04:09:27;;;;;;;33.08;21.35;;;;;;;8.46;89.62;101376.41;5032833;28;20094;-48
2021/05/20 04:11:59;;;;;;;31.48;20.95;;;;;;;8.48;90.10;101385.09;5036775;28;20098;-50
2021/05/20 04:14:25;;;;;;;39.60;23.63;;;;;;;8.33;90.58;101384.84;5035946;28;20037;-50
2021/05/20 04:16:51;;;;;;;38.30;24.80;;;;;;;8.72;87.84;101375.03;5016099;28;20041;-51
2021/05/20 04:19:16;;;;;;;37.83;23.60;;;;;;;8.47;89.78;101388.59;5036844;28;20063;-50
2021/05/20 04:21:43;;;;;;;37.45;24.08;;;;;;;8.37;90.60;101386.63;5034317;28;20143;-50
2021/05/20 04:24:09;;;;;;;38.33;23.83;;;;;;;8.55;89.56;101393.91;5008690;28;20098;-48
2021/05/20 04:26:34;;;;;;;41.38;24.60;;;;;;;8.43;90.56;101386.75;5035722;28;20037;-50
2021/05/20 04:29:01;;;;;;;40.50;24.75;;;;;;;8.26;90.38;101393.41;5010001;28;20055;-49
2021/05/20 04:31:27;;;;;;;40.15;24.55;;;;;;;8.31;91.01;101394.38;5038010;28;20033;-49
2021/05/20 04:33:53;;;;;;;41.00;25.02;;;;;;;8.46;90.24;101389.44;5032207;28;20037;-50
2021/05/20 04:36:18;;;;;;;36.53;24.25;;;;;;;8.29;90.28;101409.97;5014120;28;20060;-50
2021/05/20 04:38:44;;;;;;;41.70;26.27;;;;;;;8.41;89.65;101403.22;5032683;28;20063;-52
2021/05/20 04:41:10;;;;;;;47.25;27.52;;;;;;;8.20;90.60;101412.41;5030070;28;20037;-51
2021/05/20 04:43:35;;;;;;;45.08;25.20;;;;;;;8.24;89.93;101418.53;5033577;28;20043;-49
2021/05/20 04:46:01;;;;;;;46.83;25.58;;;;;;;8.23;90.03;101415.06;5033730;28;20025;-51
2021/05/20 04:48:27;;;;;;;56.65;27.92;;;;;;;8.66;87.92;101413.16;5026987;28;20044;-48
2021/05/20 04:50:54;;;;;;;55.72;28.95;;;;;;;8.52;89.51;101407.75;5019928;28;20048;-50
2021/05/20 04:53:22;;;;;;;57.92;29.65;;;;;;;8.32;89.52;101414.31;5011436;28;20147;-53
2021/05/20 04:55:48;;;;;;;60.28;29.95;;;;;;;8.30;89.73;101423.88;5031541;28;20070;-49
2021/05/20 04:58:14;;;;;;;43.20;26.27;;;;;;;8.30;88.13;101426.47;5032117;28;20339;-48
2021/05/20 05:00:40;;;;;;;44.13;26.80;;;;;;;8.22;89.21;101422.84;5028324;28;20098;-49
2021/05/20 05:03:05;;;;;;;41.72;26.05;;;;;;;8.16;89.21;101419.28;5030901;28;20045;-49
2021/05/20 05:05:31;;;;;;;41.72;25.13;;;;;;;8.35;88.57;101414.41;5028601;28;20518;-51
2021/05/20 05:07:57;;;;;;;43.47;25.05;;;;;;;8.27;89.21;101424.69;5025889;28;20115;-50
2021/05/20 05:10:22;;;;;;;40.42;25.10;;;;;;;8.06;89.77;101433.00;5012394;28;20400;-50
2021/05/20 05:12:48;;;;;;;45.90;27.08;;;;;;;8.08;90.37;101433.91;5030903;28;20087;-51
2021/05/20 05:15:14;;;;;;;38.97;23.55;;;;;;;8.11;90.16;101440.91;5028428;28;20041;-52
2021/05/20 05:17:39;;;;;;;39.75;22.92;;;;;;;8.49;89.36;101440.72;5030991;28;20575;-49
2021/05/20 05:20:07;;;;;;;42.65;25.55;;;;;;;8.34;87.28;101447.38;5027549;28;20036;-49
2021/05/20 05:22:32;;;;;;;40.42;24.90;;;;;;;8.51;88.70;101445.09;5030202;28;20036;-50
2021/05/20 05:24:58;;;;;;;40.80;23.98;;;;;;;8.28;89.05;101449.91;5030447;28;20068;-51
2021/05/20 05:27:24;;;;;;;36.22;21.63;;;;;;;8.30;87.02;101452.53;5027414;28;20135;-50
2021/05/20 05:29:50;;;;;;;46.53;26.42;;;;;;;8.02;88.98;101446.81;5031167;28;20077;-48
2021/05/20 05:32:16;;;;;;;44.50;26.77;;;;;;;8.17;89.05;101456.66;5009842;28;20039;-49
2021/05/20 05:34:41;;;;;;;41.95;25.63;;;;;;;7.91;89.82;101446.63;5030436;28;20025;-50
2021/05/20 05:37:07;;;;;;;47.13;26.85;;;;;;;7.98;89.91;101445.00;5029698;28;20087;-54
2021/05/20 05:39:33;;;;;;;43.03;24.95;;;;;;;8.02;89.45;101452.03;5027967;28;20173;-50
2021/05/20 05:41:59;;;;;;;61.70;31.67;;;;;;;7.99;89.21;101449.38;5031640;28;20044;-50
2021/05/20 05:44:25;;;;;;;58.78;31.15;;;;;;;7.89;90.84;101450.03;5029992;28;20048;-51
2021/05/20 05:46:51;;;;;;;56.45;28.63;;;;;;;7.91;90.36;101454.44;5031765;28;20033;-51
2021/05/20 05:49:24;;;;;;;57.92;31.20;;;;;;;7.97;91.38;101453.66;5013413;28;20441;-52
2021/05/20 05:51:54;;;;;;;65.25;31.33;;;;;;;7.91;90.49;101448.34;5028747;28;20045;-49
2021/05/20 05:54:20;;;;;;;57.20;30.08;;;;;;;8.06;87.83;101442.53;5028512;28;20041;-51
2021/05/20 05:56:46;;;;;;;60.78;30.65;;;;;;;8.45;87.88;101442.38;5029921;28;20053;-50
2021/05/20 05:59:11;;;;;;;63.65;32.75;;;;;;;8.43;88.49;101448.38;5026279;28;20029;-53
2021/05/20 06:01:39;;;;;;;59.53;31.95;;;;;;;8.50;86.89;101440.75;5013002;28;20037;-53
2021/05/20 06:04:06;;;;;;;58.85;29.75;;;;;;;8.53;86.62;101442.53;5027808;28;20048;-54
2021/05/20 06:06:32;;;;;;;55.80;30.88;;;;;;;8.41;86.27;101444.88;5027086;28;20405;-51
2021/05/20 06:08:58;;;;;;;59.22;31.10;;;;;;;8.23;87.91;101445.47;5033894;28;20488;-52
2021/05/20 06:11:24;;;;;;;57.72;32.00;;;;;;;8.10;88.02;101446.94;5034154;28;20045;-52
2021/05/20 06:13:49;;;;;;;60.80;32.00;;;;;;;8.05;88.05;101446.88;5034532;28;20029;-51
2021/05/20 06:16:15;;;;;;;61.30;31.65;;;;;;;8.16;87.62;101444.47;5035623;28;20041;-52
2021/05/20 06:18:40;;;;;;;54.42;29.08;;;;;;;8.25;87.45;101454.16;5034108;28;20147;-51
2021/05/20 06:21:06;;;;;;;59.95;31.35;;;;;;;8.16;88.68;101452.28;5015308;28;20454;-54
2021/05/20 06:23:32;;;;;;;55.88;29.85;;;;;;;8.09;89.36;101459.09;5017299;28;20524;-53
2021/05/20 06:25:57;;;;;;;61.03;31.85;;;;;;;8.25;89.33;101456.75;5036664;28;20037;-53
2021/05/20 06:28:24;;;;;;;64.00;31.40;;;;;;;8.50;86.71;101460.69;5034828;28;20069;-51
2021/05/20 06:30:49;;;;;;;63.63;31.75;;;;;;;8.29;88.69;101455.97;5037846;28;20075;-53
2021/05/20 06:33:16;;;;;;;63.65;30.92;;;;;;;8.47;87.23;101456.34;5014452;28;20044;-51
2021/05/20 06:35:42;;;;;;;64.05;30.90;;;;;;;8.26;89.13;101459.41;5032711;28;20052;-51
2021/05/20 06:38:07;;;;;;;61.65;30.67;;;;;;;8.23;89.41;101461.09;5031961;28;20040;-52
2021/05/20 06:40:33;;;;;;;59.47;29.27;;;;;;;8.33;88.98;101461.28;5035016;28;20043;-52
2021/05/20 06:43:00;;;;;;;61.97;30.67;;;;;;;8.34;89.73;101456.94;5035724;28;20041;-50
2021/05/20 06:45:25;;;;;;;57.25;30.17;;;;;;;8.39;89.64;101463.09;5031702;28;20260;-50
2021/05/20 06:47:53;;;;;;;57.85;29.38;;;;;;;8.38;89.83;101463.94;5033425;28;20428;-50
2021/05/20 06:50:19;;;;;;;48.90;27.88;;;;;;;8.20;88.56;101461.91;5032642;28;20041;-51
2021/05/20 06:52:44;;;;;;;54.35;29.50;;;;;;;8.29;88.02;101463.78;5017431;28;20071;-50
2021/05/20 06:55:10;;;;;;;57.85;31.65;;;;;;;8.08;89.99;101472.09;5029852;28;20155;-54
2021/05/20 07:01:01;;;;;;;46.38;27.33;;;;;;;8.74;86.54;101455.00;5020549;28;20080;-51
2021/05/20 07:03:52;;;;;;;51.55;27.35;;;;;;;8.77;86.29;101464.63;5031536;28;20040;-53
2021/05/20 07:06:46;;;;;;;48.85;27.40;;;;;;;8.79;86.17;101469.00;5022010;28;20063;-53
2021/05/20 07:09:38;;;;;;;47.60;27.27;;;;;;;8.46;86.88;101474.53;5021122;28;20036;-54
2021/05/20 07:12:28;;;;;;;57.80;31.20;;;;;;;8.40;87.63;101479.59;5028610;28;20258;-51
2021/05/20 07:15:19;;;;;;;59.75;30.60;;;;;;;8.50;89.73;101485.03;5026301;28;20041;-51
2021/05/20 07:18:10;;;;;;;62.13;30.67;;;;;;;8.50;89.72;101477.22;5017682;28;20052;-52
2021/05/20 07:21:01;;;;;;;52.75;29.27;;;;;;;8.40;89.39;101479.59;5024560;27;20045;-51
2021/05/20 07:23:52;;;;;;;55.05;27.83;;;;;;;8.97;86.01;101483.16;5025696;28;20044;-50
2021/05/20 07:26:18;;;;;;;60.10;31.50;;;;;;;8.95;87.36;101483.13;5034381;28;20340;-52
2021/05/20 07:28:44;;;;;;;54.95;31.17;;;;;;;8.71;86.98;101487.97;5032844;28;20123;-52
2021/05/20 07:31:10;;;;;;;63.97;32.25;;;;;;;8.57;89.17;101487.72;5034492;28;20052;-51
2021/05/20 07:33:37;;;;;;;71.00;35.80;;;;;;;8.49;90.04;101491.09;5032942;28;20037;-53
2021/05/20 07:36:04;;;;;;;68.00;33.92;;;;;;;8.52;90.73;101485.94;5017368;28;20068;-53
2021/05/20 07:38:32;;;;;;;64.70;32.75;;;;;;;8.54;90.50;101490.28;5034194;28;20044;-50
2021/05/20 07:40:58;;;;;;;63.22;32.10;;;;;;;8.81;89.13;101477.72;5034840;28;20064;-52
2021/05/20 07:43:24;;;;;;;61.58;31.48;;;;;;;8.59;90.26;101488.66;5013793;28;20505;-51
2021/05/20 07:45:51;;;;;;;54.72;28.15;;;;;;;8.65;89.89;101489.63;5033247;28;20043;-52
2021/05/20 07:48:17;;;;;;;60.83;31.88;;;;;;;8.66;90.53;101495.72;5013480;28;20055;-54
2021/05/20 07:50:43;;;;;;;58.88;30.17;;;;;;;9.21;87.89;101490.47;5011330;28;20148;-54
2021/05/20 07:53:12;;;;;;;53.92;27.45;;;;;;;9.17;87.65;101484.31;5034916;28;20555;-49
2021/05/20 07:55:38;;;;;;;52.78;27.42;;;;;;;9.11;87.02;101485.97;5031041;28;20135;-51
2021/05/20 07:58:05;;;;;;;52.33;27.30;;;;;;;8.90;87.01;101494.34;5033401;28;20236;-53
2021/05/20 08:00:31;;;;;;;54.35;26.75;;;;;;;8.90;88.66;101494.34;5015496;28;20148;-51
2021/05/20 08:03:16;;;;;;;49.70;25.90;;;;;;;8.90;87.18;101496.97;5031852;28;20443;-52
2021/05/20 08:06:33;;;;;;;53.92;26.95;;;;;;;8.87;89.35;101508.22;5015025;28;20472;-51
2021/05/20 08:11:09;;;;;;;47.72;25.13;;;;;;;9.09;87.92;101508.56;5029942;28;20037;-50
2021/05/20 08:13:35;;;;;;;53.35;28.00;;;;;;;8.96;87.47;101508.38;5032412;28;20037;-51
2021/05/20 08:16:02;;;;;;;55.47;27.60;;;;;;;8.97;89.86;101504.91;5016238;28;20060;-52
2021/05/20 08:18:29;;;;;;;55.30;27.58;;;;;;;9.09;90.18;101504.19;5014116;28;20045;-51
2021/05/20 08:20:56;;;;;;;48.20;26.10;;;;;;;9.20;87.47;101502.63;5032448;28;20127;-52
2021/05/20 08:23:25;;;;;;;48.80;26.25;;;;;;;9.50;86.36;101503.91;5012976;28;20056;-51
2021/05/20 08:25:51;;;;;;;47.90;24.45;;;;;;;9.24;86.25;101497.47;5034872;28;20305;-54
2021/05/20 08:28:17;;;;;;;47.72;24.70;;;;;;;9.24;87.40;101497.47;5030212;28;20701;-52
2021/05/20 08:30:44;;;;;;;45.63;25.45;;;;;;;9.09;86.07;101499.00;5032742;28;20389;-50
2021/05/20 08:33:10;;;;;;;46.47;25.45;;;;;;;9.13;84.47;101495.56;5030559;28;20041;-50
2021/05/20 08:35:36;;;;;;;43.80;24.95;;;;;;;9.09;86.17;101493.78;5031147;28;20515;-51
2021/05/20 08:38:02;;;;;;;44.00;24.10;;;;;;;9.16;88.42;101489.53;5030457;28;20090;-51
2021/05/20 08:40:29;;;;;;;46.40;24.85;;;;;;;9.18;88.92;101499.13;5033840;28;20432;-52
2021/05/20 08:42:54;;;;;;;46.90;25.55;;;;;;;9.36;87.13;101492.44;5012942;28;20044;-49
2021/05/20 08:45:23;;;;;;;39.00;23.10;;;;;;;9.93;81.55;101479.16;5031229;28;20404;-53
2021/05/20 08:47:51;;;;;;;42.45;23.08;;;;;;;9.73;84.29;101481.56;5028368;28;20045;-54
2021/05/20 08:50:22;;;;;;;47.47;23.10;;;;;;;10.11;84.49;101475.91;5027705;28;20037;-54
2021/05/20 08:52:48;;;;;;;40.80;23.90;;;;;;;10.45;82.52;101473.63;5032171;28;21205;-49
2021/05/20 08:55:20;;;;;;;40.47;23.13;;;;;;;10.31;81.21;101474.31;5028576;28;20044;-52
2021/05/20 08:57:46;;;;;;;42.05;22.10;;;;;;;10.69;80.98;101473.81;5030363;28;20415;-49
2021/05/20 09:00:15;;;;;;;42.00;23.08;;;;;;;10.79;80.50;101469.53;5031957;28;20072;-51
2021/05/20 09:02:41;;;;;;;41.70;24.15;;;;;;;10.57;80.81;101471.97;5012450;28;20053;-50
2021/05/20 09:05:10;;;;;;;40.13;22.52;;;;;;;11.05;79.25;101469.72;5027483;28;20036;-53
2021/05/20 09:07:41;;;;;;;36.70;23.08;;;;;;;10.88;79.61;101463.47;5032682;28;20094;-54
2021/05/20 09:10:30;;;;;;;37.97;21.23;;;;;;;10.66;80.01;101470.28;5029377;28;20090;-51
2021/05/20 09:12:59;;;;;;;35.92;21.70;;;;;;;10.81;82.08;101452.09;5030887;28;20533;-52
2021/05/20 09:15:36;;;;;;;34.90;20.73;;;;;;;11.44;79.76;101450.69;5031902;28;20071;-50
2021/05/20 09:18:24;;;;;;;28.90;18.60;;;;;;;11.67;76.38;101446.44;5028199;28;20480;-52
2021/05/20 09:20:55;;;;;;;28.45;18.48;;;;;;;11.35;76.84;101448.91;5012931;28;20059;-50
2021/05/20 09:23:26;;;;;;;31.67;19.65;;;;;;;11.31;77.32;101448.06;5031040;28;20500;-52
2021/05/20 09:25:53;;;;;;;31.45;19.55;;;;;;;10.94;76.77;101444.34;5031326;28;20037;-50
2021/05/20 09:28:41;;;;;;;27.92;18.55;;;;;;;11.28;79.07;101436.69;5012641;28;20257;-51
2021/05/20 09:31:07;;;;;;;32.15;19.40;;;;;;;11.29;78.02;101448.91;5032214;28;20131;-50
2021/05/20 09:33:33;;;;;;;28.42;18.80;;;;;;;11.46;78.38;101443.75;5029234;28;20053;-51
2021/05/20 09:35:58;;;;;;;31.70;20.08;;;;;;;11.15;77.00;101436.63;5030919;28;20053;-55
2021/05/20 09:38:27;;;;;;;34.13;19.92;;;;;;;11.19;79.08;101434.91;4998485;28;20052;-52
2021/05/20 09:40:55;;;;;;;27.60;17.33;;;;;;;11.45;77.34;101431.50;5031536;28;20075;-51
2021/05/20 09:43:31;;;;;;;19.58;12.98;;;;;;;11.84;72.79;101430.78;5030652;28;20330;-51
2021/05/20 09:46:18;;;;;;;18.00;12.75;;;;;;;11.62;73.54;101423.75;5037248;28;20037;-51
2021/05/20 09:48:46;;;;;;;16.33;12.20;;;;;;;11.83;74.04;101425.53;5033287;28;20818;-50
2021/05/20 09:51:26;;;;;;;15.23;11.32;;;;;;;12.42;70.93;101423.88;5035468;28;20136;-51
2021/05/20 09:53:53;;;;;;;15.10;11.05;;;;;;;12.54;68.03;101415.97;5041803;28;20087;-52
2021/05/20 09:56:42;;;;;;;15.35;11.65;;;;;;;12.35;70.13;101416.88;5035473;28;20408;-53
2021/05/20 09:59:16;;;;;;;15.82;10.95;;;;;;;12.58;66.40;101412.47;5017365;28;20060;-50
2021/05/20 10:01:43;;;;;;;15.05;11.15;;;;;;;12.80;68.87;101411.59;5038413;28;20035;-51
2021/05/20 10:04:09;;;;;;;14.25;9.95;;;;;;;12.66;66.19;101411.63;5034701;28;20087;-52
2021/05/20 10:06:42;;;;;;;12.25;8.77;;;;;;;12.98;63.41;101406.28;5035816;28;20054;-54
2021/05/20 10:09:10;;;;;;;13.95;9.25;;;;;;;12.91;64.70;101402.81;5002160;28;20083;-50
2021/05/20 10:11:37;;;;;;;12.38;8.65;;;;;;;13.09;63.28;101404.50;5036408;28;20148;-51
2021/05/20 10:14:04;;;;;;;12.43;8.55;;;;;;;13.22;61.40;101404.47;5015276;28;20566;-53
2021/05/20 10:16:30;;;;;;;12.80;9.55;;;;;;;13.10;65.76;101400.13;5037284;28;20082;-52
2021/05/20 10:18:57;;;;;;;13.40;9.27;;;;;;;13.10;65.88;101394.91;5036860;28;20456;-50
2021/05/20 10:21:24;;;;;;;13.30;9.43;;;;;;;13.22;61.61;101388.69;5036217;28;20068;-54
2021/05/20 10:23:54;;;;;;;13.55;9.35;;;;;;;13.02;65.71;101387.03;5032647;28;20245;-50
2021/05/20 10:26:20;;;;;;;13.52;8.88;;;;;;;13.68;61.41;101392.88;5034919;28;20128;-52
2021/05/20 10:28:46;;;;;;;15.68;9.90;;;;;;;13.78;62.18;101391.97;5016926;28;20037;-50
2021/05/20 10:31:13;;;;;;;12.98;8.15;;;;;;;13.85;58.90;101388.41;5032388;28;20052;-51
2021/05/20 10:33:39;;;;;;;14.55;9.80;;;;;;;13.89;62.69;101391.91;5035100;28;20197;-51
2021/05/20 10:36:06;;;;;;;13.30;9.10;;;;;;;13.41;59.57;101384.28;5030612;28;20072;-50
2021/05/20 10:38:32;;;;;;;12.25;9.00;;;;;;;13.21;61.35;101377.34;5035233;28;20534;-50
2021/05/20 10:41:11;;;;;;;14.73;9.13;;;;;;;13.53;63.38;101381.59;5021378;28;20196;-49
2021/05/20 10:43:38;;;;;;;14.27;9.55;;;;;;;13.76;61.28;101380.56;5031836;28;20373;-50
2021/05/20 10:46:09;;;;;;;13.70;9.00;;;;;;;14.16;60.64;101364.50;5034844;28;20041;-50
2021/05/20 10:48:36;;;;;;;13.50;7.32;;;;;;;14.36;56.03;101366.97;5033655;28;20053;-50
2021/05/20 10:51:04;;;;;;;12.90;8.27;;;;;;;14.54;56.02;101360.66;5032220;28;20037;-53
2021/05/20 10:53:46;;;;;;;12.10;8.85;;;;;;;14.45;59.08;101355.47;5031927;28;20056;-52
2021/05/20 10:56:11;;;;;;;12.77;9.27;;;;;;;14.35;59.98;101351.22;5009408;28;20044;-53
2021/05/20 10:58:37;;;;;;;13.60;9.90;;;;;;;14.17;60.35;101347.84;5033810;28;20791;-55
2021/05/20 11:01:34;;;;;;;11.90;9.07;;;;;;;14.34;61.59;101346.81;5031989;28;20144;-52
2021/05/20 11:04:06;;;;;;;10.48;7.85;;;;;;;14.58;55.46;101340.44;5015170;28;20041;-50
2021/05/20 11:06:37;;;;;;;11.13;7.60;;;;;;;14.55;55.77;101322.06;5032502;28;20087;-52
2021/05/20 11:09:10;;;;;;;9.60;7.00;;;;;;;14.34;58.45;101317.88;5035277;28;20052;-53
2021/05/20 11:11:39;;;;;;;8.80;6.97;;;;;;;14.57;59.43;101321.16;4999524;28;20076;-52
2021/05/20 11:14:05;;;;;;;;;;;;;;;14.55;59.47;101325.56;5009952;28;20311;-50
2021/05/20 11:16:34;;;;;;;8.70;6.88;;;;;;;14.99;53.89;101320.69;5034384;28;19924;-50
2021/05/20 11:19:19;;;;;;;8.43;6.25;;;;;;;14.88;53.71;101315.56;5032573;28;20052;-53
2021/05/20 11:21:57;;;;;;;8.50;6.25;;;;;;;14.91;53.57;101310.28;4995134;28;20041;-54
2021/05/20 11:24:25;;;;;;;10.13;6.75;;;;;;;14.58;58.89;101308.84;5031568;28;20044;-50
2021/05/20 11:26:52;;;;;;;;;;;;;;;15.23;51.66;101316.00;5030932;28;20041;-53
2021/05/20 11:29:17;;;;;;;9.25;6.35;;;;;;;15.00;55.22;101306.66;5031175;28;20383;-52
2021/05/20 11:31:43;;;;;;;10.85;6.90;;;;;;;15.03;59.15;101305.75;5032848;28;20219;-54